sensor_id;sensor_type;location;lat;lon;timestamp;temperature;humidity
21302;DHT22;10810;48.270;9.996;2023-07-09T00:02:27;18.30;99.90
21302;DHT22;10810;48.270;9.996;2023-07-09T00:07:24;18.30;99.90
21302;DHT22;10810;48.270;9.996;2023-07-09T00:09:54;18.30;99.90
21302;DHT22;10810;48.270;9.996;2023-07-09T00:17:21;18.00;99.90
21302;DHT22;10810;48.270;9.996;2023-07-09T00:19:52;18.00;99.90
21302;DHT22;10810;48.270;9.996;2023-07-09T00:22:25;17.90;99.90
21302;DHT22;10810;48.270;9.996;2023-07-09T00:27:27;17.80;99.90
21302;DHT22;10810;48.270;9.996;2023-07-09T00:32:22;18.00;99.90
21302;DHT22;10810;48.270;9.996;2023-07-09T00:34:52;17.90;99.90
21302;DHT22;10810;48.270;9.996;2023-07-09T00:37:23;17.80;99.90
21302;DHT22;10810;48.270;9.996;2023-07-09T00:42:20;17.70;99.90
21302;DHT22;10810;48.270;9.996;2023-07-09T00:44:51;17.70;99.90
21302;DHT22;10810;48.270;9.996;2023-07-09T00:47:43;17.80;99.90
21302;DHT22;10810;48.270;9.996;2023-07-09T00:50:53;17.70;99.90
21302;DHT22;10810;48.270;9.996;2023-07-09T00:53:28;19.40;99.90
21302;DHT22;10810;48.270;9.996;2023-07-09T00:56:00;17.60;99.90
21302;DHT22;10810;48.270;9.996;2023-07-09T00:58:30;17.50;99.90
21302;DHT22;10810;48.270;9.996;2023-07-09T01:01:03;17.50;99.90
21302;DHT22;10810;48.270;9.996;2023-07-09T01:03:35;17.40;99.90
21302;DHT22;10810;48.270;9.996;2023-07-09T01:06:17;17.50;99.90
21302;DHT22;10810;48.270;9.996;2023-07-09T01:08:52;17.50;99.90
21302;DHT22;10810;48.270;9.996;2023-07-09T01:11:24;17.40;99.90
21302;DHT22;10810;48.270;9.996;2023-07-09T01:13:55;17.40;99.90
21302;DHT22;10810;48.270;9.996;2023-07-09T01:16:25;17.30;99.90
21302;DHT22;10810;48.270;9.996;2023-07-09T01:18:55;17.30;99.90
21302;DHT22;10810;48.270;9.996;2023-07-09T01:21:34;17.20;99.90
21302;DHT22;10810;48.270;9.996;2023-07-09T01:24:13;17.20;99.90
21302;DHT22;10810;48.270;9.996;2023-07-09T01:26:45;17.20;99.90
21302;DHT22;10810;48.270;9.996;2023-07-09T01:36:51;16.10;99.90
21302;DHT22;10810;48.270;9.996;2023-07-09T01:52:03;17.10;99.90
21302;DHT22;10810;48.270;9.996;2023-07-09T01:54:40;17.10;99.90
21302;DHT22;10810;48.270;9.996;2023-07-09T01:57:16;17.10;99.90
21302;DHT22;10810;48.270;9.996;2023-07-09T02:02:14;17.10;99.90
21302;DHT22;10810;48.270;9.996;2023-07-09T02:05:01;17.00;99.90
21302;DHT22;10810;48.270;9.996;2023-07-09T02:07:30;16.90;99.90
21302;DHT22;10810;48.270;9.996;2023-07-09T02:10:14;16.80;99.90
21302;DHT22;10810;48.270;9.996;2023-07-09T02:15:14;16.30;99.90
21302;DHT22;10810;48.270;9.996;2023-07-09T02:17:47;16.80;99.90
21302;DHT22;10810;48.270;9.996;2023-07-09T02:22:57;16.70;99.90
21302;DHT22;10810;48.270;9.996;2023-07-09T02:32:56;16.60;99.90
21302;DHT22;10810;48.270;9.996;2023-07-09T02:38:23;16.60;99.90
21302;DHT22;10810;48.270;9.996;2023-07-09T02:45:51;16.50;99.90
21302;DHT22;10810;48.270;9.996;2023-07-09T02:48:23;16.50;99.90
21302;DHT22;10810;48.270;9.996;2023-07-09T02:53:24;16.40;99.90
21302;DHT22;10810;48.270;9.996;2023-07-09T03:00:53;16.30;99.90
21302;DHT22;10810;48.270;9.996;2023-07-09T03:03:20;16.30;99.90
21302;DHT22;10810;48.270;9.996;2023-07-09T03:05:49;16.30;99.90
21302;DHT22;10810;48.270;9.996;2023-07-09T03:10:47;16.40;99.90
21302;DHT22;10810;48.270;9.996;2023-07-09T03:15:43;16.20;99.90
21302;DHT22;10810;48.270;9.996;2023-07-09T03:28:03;16.30;99.90
21302;DHT22;10810;48.270;9.996;2023-07-09T03:33:01;16.20;99.90
21302;DHT22;10810;48.270;9.996;2023-07-09T03:35:31;16.10;99.90
21302;DHT22;10810;48.270;9.996;2023-07-09T03:38:09;16.00;99.90
21302;DHT22;10810;48.270;9.996;2023-07-09T03:43:13;16.00;99.90
21302;DHT22;10810;48.270;9.996;2023-07-09T03:48:14;15.90;99.90
21302;DHT22;10810;48.270;9.996;2023-07-09T03:53:11;16.00;99.90
21302;DHT22;10810;48.270;9.996;2023-07-09T03:58:13;16.00;99.90
21302;DHT22;10810;48.270;9.996;2023-07-09T04:10:48;16.00;99.90
21302;DHT22;10810;48.270;9.996;2023-07-09T04:13:17;16.00;99.90
21302;DHT22;10810;48.270;9.996;2023-07-09T04:15:50;16.10;99.90
21302;DHT22;10810;48.270;9.996;2023-07-09T04:23:20;16.20;99.90
21302;DHT22;10810;48.270;9.996;2023-07-09T04:25:52;16.20;99.90
21302;DHT22;10810;48.270;9.996;2023-07-09T04:28:23;16.20;99.90
21302;DHT22;10810;48.270;9.996;2023-07-09T04:33:20;16.20;99.90
21302;DHT22;10810;48.270;9.996;2023-07-09T04:38:17;16.20;99.90
21302;DHT22;10810;48.270;9.996;2023-07-09T04:40:48;16.20;99.90
21302;DHT22;10810;48.270;9.996;2023-07-09T04:43:32;16.20;99.90
21302;DHT22;10810;48.270;9.996;2023-07-09T04:48:28;16.40;99.90
21302;DHT22;10810;48.270;9.996;2023-07-09T04:53:28;16.50;99.90
21302;DHT22;10810;48.270;9.996;2023-07-09T04:58:47;16.60;99.90
21302;DHT22;10810;48.270;9.996;2023-07-09T05:01:20;16.70;99.90
21302;DHT22;10810;48.270;9.996;2023-07-09T05:03:52;16.70;99.90
21302;DHT22;10810;48.270;9.996;2023-07-09T05:06:21;16.80;99.90
21302;DHT22;10810;48.270;9.996;2023-07-09T05:13:44;17.00;99.90
21302;DHT22;10810;48.270;9.996;2023-07-09T05:26:01;17.30;99.90
21302;DHT22;10810;48.270;9.996;2023-07-09T05:31:00;17.50;99.90
21302;DHT22;10810;48.270;9.996;2023-07-09T05:33:27;21.00;99.90
21302;DHT22;10810;48.270;9.996;2023-07-09T05:38:25;17.80;99.90
21302;DHT22;10810;48.270;9.996;2023-07-09T05:41:00;17.90;99.90
21302;DHT22;10810;48.270;9.996;2023-07-09T05:43:52;18.00;99.90
21302;DHT22;10810;48.270;9.996;2023-07-09T05:46:22;18.00;99.90
21302;DHT22;10810;48.270;9.996;2023-07-09T05:51:17;18.50;99.90
21302;DHT22;10810;48.270;9.996;2023-07-09T05:56:11;18.70;99.90
21302;DHT22;10810;48.270;9.996;2023-07-09T05:58:39;18.80;99.90
21302;DHT22;10810;48.270;9.996;2023-07-09T06:03:35;19.10;99.90
21302;DHT22;10810;48.270;9.996;2023-07-09T06:11:02;19.60;99.90
21302;DHT22;10810;48.270;9.996;2023-07-09T06:13:32;19.90;99.90
21302;DHT22;10810;48.270;9.996;2023-07-09T06:20:58;20.00;99.90
21302;DHT22;10810;48.270;9.996;2023-07-09T06:28:24;20.50;99.90
21302;DHT22;10810;48.270;9.996;2023-07-09T06:33:19;20.90;99.90
21302;DHT22;10810;48.270;9.996;2023-07-09T06:35:48;21.80;99.90
21302;DHT22;10810;48.270;9.996;2023-07-09T06:38:18;20.60;99.90
21302;DHT22;10810;48.270;9.996;2023-07-09T06:43:16;21.50;99.90
21302;DHT22;10810;48.270;9.996;2023-07-09T06:45:53;21.90;99.90
21302;DHT22;10810;48.270;9.996;2023-07-09T06:48:21;22.10;99.90
21302;DHT22;10810;48.270;9.996;2023-07-09T06:50:53;22.20;99.90
21302;DHT22;10810;48.270;9.996;2023-07-09T06:53:22;22.30;99.90
21302;DHT22;10810;48.270;9.996;2023-07-09T06:55:52;21.80;99.90
21302;DHT22;10810;48.270;9.996;2023-07-09T06:58:21;22.70;99.90
21302;DHT22;10810;48.270;9.996;2023-07-09T07:05:46;20.80;99.90
21302;DHT22;10810;48.270;9.996;2023-07-09T07:08:16;23.70;99.90
21302;DHT22;10810;48.270;9.996;2023-07-09T07:10:46;24.00;99.90
21302;DHT22;10810;48.270;9.996;2023-07-09T07:15:47;24.00;99.90
21302;DHT22;10810;48.270;9.996;2023-07-09T07:20:43;24.50;99.90
21302;DHT22;10810;48.270;9.996;2023-07-09T07:23:33;24.50;99.90
21302;DHT22;10810;48.270;9.996;2023-07-09T07:26:18;24.80;99.90
21302;DHT22;10810;48.270;9.996;2023-07-09T07:31:16;25.10;99.90
21302;DHT22;10810;48.270;9.996;2023-07-09T07:36:19;25.40;99.90
21302;DHT22;10810;48.270;9.996;2023-07-09T07:41:16;25.20;99.90
21302;DHT22;10810;48.270;9.996;2023-07-09T07:48:39;24.70;99.90
21302;DHT22;10810;48.270;9.996;2023-07-09T07:51:09;25.80;99.90
21302;DHT22;10810;48.270;9.996;2023-07-09T07:56:04;26.10;99.90
21302;DHT22;10810;48.270;9.996;2023-07-09T07:58:33;26.30;99.90
21302;DHT22;10810;48.270;9.996;2023-07-09T08:01:00;26.20;99.90
21302;DHT22;10810;48.270;9.996;2023-07-09T08:05:56;26.40;98.90
21302;DHT22;10810;48.270;9.996;2023-07-09T08:08:23;26.50;99.90
21302;DHT22;10810;48.270;9.996;2023-07-09T08:10:50;26.70;99.60
21302;DHT22;10810;48.270;9.996;2023-07-09T08:13:18;26.90;99.90
21302;DHT22;10810;48.270;9.996;2023-07-09T08:15:47;26.80;96.50
21302;DHT22;10810;48.270;9.996;2023-07-09T08:18:14;26.70;96.80
21302;DHT22;10810;48.270;9.996;2023-07-09T08:20:43;26.60;96.60
21302;DHT22;10810;48.270;9.996;2023-07-09T08:23:13;26.90;98.60
21302;DHT22;10810;48.270;9.996;2023-07-09T08:28:07;27.20;95.60
21302;DHT22;10810;48.270;9.996;2023-07-09T08:30:37;27.50;93.00
21302;DHT22;10810;48.270;9.996;2023-07-09T08:33:19;27.70;93.00
21302;DHT22;10810;48.270;9.996;2023-07-09T08:35:51;27.60;93.70
21302;DHT22;10810;48.270;9.996;2023-07-09T08:38:27;27.90;94.20
21302;DHT22;10810;48.270;9.996;2023-07-09T08:41:01;28.00;94.00
21302;DHT22;10810;48.270;9.996;2023-07-09T08:43:45;28.40;95.00
21302;DHT22;10810;48.270;9.996;2023-07-09T08:46:37;28.50;91.10
21302;DHT22;10810;48.270;9.996;2023-07-09T08:49:17;28.60;90.50
21302;DHT22;10810;48.270;9.996;2023-07-09T08:51:57;28.50;91.20
21302;DHT22;10810;48.270;9.996;2023-07-09T08:54:27;28.50;91.90
21302;DHT22;10810;48.270;9.996;2023-07-09T08:56:58;28.50;90.00
21302;DHT22;10810;48.270;9.996;2023-07-09T09:01:57;28.20;89.00
21302;DHT22;10810;48.270;9.996;2023-07-09T09:04:36;28.20;90.00
21302;DHT22;10810;48.270;9.996;2023-07-09T09:07:18;29.60;91.90
21302;DHT22;10810;48.270;9.996;2023-07-09T09:09:58;28.80;91.00
21302;DHT22;10810;48.270;9.996;2023-07-09T09:12:36;29.10;90.40
21302;DHT22;10810;48.270;9.996;2023-07-09T09:15:11;29.10;92.80
21302;DHT22;10810;48.270;9.996;2023-07-09T09:17:40;29.20;90.20
21302;DHT22;10810;48.270;9.996;2023-07-09T09:20:11;29.10;86.20
21302;DHT22;10810;48.270;9.996;2023-07-09T09:22:46;29.20;84.40
21302;DHT22;10810;48.270;9.996;2023-07-09T09:25:31;29.50;81.80
21302;DHT22;10810;48.270;9.996;2023-07-09T09:28:07;29.40;78.10
21302;DHT22;10810;48.270;9.996;2023-07-09T09:30:43;29.40;82.40
21302;DHT22;10810;48.270;9.996;2023-07-09T09:33:20;29.30;78.50
21302;DHT22;10810;48.270;9.996;2023-07-09T09:36:03;29.40;76.20
21302;DHT22;10810;48.270;9.996;2023-07-09T09:38:36;29.40;76.00
21302;DHT22;10810;48.270;9.996;2023-07-09T09:41:03;29.50;77.00
21302;DHT22;10810;48.270;9.996;2023-07-09T09:43:32;29.60;75.20
21302;DHT22;10810;48.270;9.996;2023-07-09T09:48:29;29.60;68.50
21302;DHT22;10810;48.270;9.996;2023-07-09T09:50:57;29.50;66.50
21302;DHT22;10810;48.270;9.996;2023-07-09T09:53:29;29.60;69.60
21302;DHT22;10810;48.270;9.996;2023-07-09T09:55:57;29.80;67.40
21302;DHT22;10810;48.270;9.996;2023-07-09T09:58:28;29.90;65.00
21302;DHT22;10810;48.270;9.996;2023-07-09T10:00:56;29.80;63.90
21302;DHT22;10810;48.270;9.996;2023-07-09T10:03:33;29.70;63.10
21302;DHT22;10810;48.270;9.996;2023-07-09T10:06:07;29.80;64.30
21302;DHT22;10810;48.270;9.996;2023-07-09T10:08:44;29.90;65.30
21302;DHT22;10810;48.270;9.996;2023-07-09T10:11:19;29.80;63.10
21302;DHT22;10810;48.270;9.996;2023-07-09T10:13:49;29.80;61.60
21302;DHT22;10810;48.270;9.996;2023-07-09T10:16:23;29.80;63.00
21302;DHT22;10810;48.270;9.996;2023-07-09T10:18:55;29.90;60.80
21302;DHT22;10810;48.270;9.996;2023-07-09T10:21:27;30.40;62.60
21302;DHT22;10810;48.270;9.996;2023-07-09T10:24:12;30.50;61.70
21302;DHT22;10810;48.270;9.996;2023-07-09T10:26:46;30.80;59.10
21302;DHT22;10810;48.270;9.996;2023-07-09T10:29:33;31.10;60.90
21302;DHT22;10810;48.270;9.996;2023-07-09T10:32:09;31.10;58.30
21302;DHT22;10810;48.270;9.996;2023-07-09T10:34:45;31.30;59.30
21302;DHT22;10810;48.270;9.996;2023-07-09T10:37:34;31.40;54.70
21302;DHT22;10810;48.270;9.996;2023-07-09T10:40:10;32.10;54.60
21302;DHT22;10810;48.270;9.996;2023-07-09T10:42:45;31.70;53.00
21302;DHT22;10810;48.270;9.996;2023-07-09T10:45:17;31.20;51.30
21302;DHT22;10810;48.270;9.996;2023-07-09T10:47:48;31.20;51.90
21302;DHT22;10810;48.270;9.996;2023-07-09T10:50:26;31.10;52.60
21302;DHT22;10810;48.270;9.996;2023-07-09T10:52:54;31.20;50.60
21302;DHT22;10810;48.270;9.996;2023-07-09T10:55:30;31.20;50.70
21302;DHT22;10810;48.270;9.996;2023-07-09T10:58:02;31.30;50.00
21302;DHT22;10810;48.270;9.996;2023-07-09T11:00:35;31.30;50.40
21302;DHT22;10810;48.270;9.996;2023-07-09T11:03:08;31.50;51.30
21302;DHT22;10810;48.270;9.996;2023-07-09T11:05:39;32.00;50.60
21302;DHT22;10810;48.270;9.996;2023-07-09T11:08:12;32.30;47.00
21302;DHT22;10810;48.270;9.996;2023-07-09T11:10:47;32.30;47.60
21302;DHT22;10810;48.270;9.996;2023-07-09T11:13:19;32.50;53.50
21302;DHT22;10810;48.270;9.996;2023-07-09T11:15:54;33.00;46.40
21302;DHT22;10810;48.270;9.996;2023-07-09T11:18:25;32.60;45.80
21302;DHT22;10810;48.270;9.996;2023-07-09T11:20:59;32.60;47.40
21302;DHT22;10810;48.270;9.996;2023-07-09T11:23:38;32.40;46.50
21302;DHT22;10810;48.270;9.996;2023-07-09T11:26:20;32.40;46.20
21302;DHT22;10810;48.270;9.996;2023-07-09T11:29:26;32.30;47.90
21302;DHT22;10810;48.270;9.996;2023-07-09T11:32:22;32.30;47.80
21302;DHT22;10810;48.270;9.996;2023-07-09T11:37:27;32.60;46.40
21302;DHT22;10810;48.270;9.996;2023-07-09T11:40:05;32.70;46.20
21302;DHT22;10810;48.270;9.996;2023-07-09T11:42:47;32.70;45.70
21302;DHT22;10810;48.270;9.996;2023-07-09T11:45:17;32.80;46.40
21302;DHT22;10810;48.270;9.996;2023-07-09T11:47:50;32.90;44.80
21302;DHT22;10810;48.270;9.996;2023-07-09T11:50:24;33.00;47.20
21302;DHT22;10810;48.270;9.996;2023-07-09T11:52:54;32.70;47.40
21302;DHT22;10810;48.270;9.996;2023-07-09T11:55:26;32.80;45.80
21302;DHT22;10810;48.270;9.996;2023-07-09T11:57:56;33.30;44.50
21302;DHT22;10810;48.270;9.996;2023-07-09T12:05:21;32.60;43.70
21302;DHT22;10810;48.270;9.996;2023-07-09T12:10:20;33.10;45.90
21302;DHT22;10810;48.270;9.996;2023-07-09T12:12:55;36.50;53.60
21302;DHT22;10810;48.270;9.996;2023-07-09T12:15:24;33.70;47.70
21302;DHT22;10810;48.270;9.996;2023-07-09T12:18:00;33.70;48.20
21302;DHT22;10810;48.270;9.996;2023-07-09T12:20:30;33.80;47.60
21302;DHT22;10810;48.270;9.996;2023-07-09T12:22:57;33.90;48.40
21302;DHT22;10810;48.270;9.996;2023-07-09T12:25:26;33.70;46.60
21302;DHT22;10810;48.270;9.996;2023-07-09T12:27:55;33.70;47.20
21302;DHT22;10810;48.270;9.996;2023-07-09T12:30:24;33.60;44.70
21302;DHT22;10810;48.270;9.996;2023-07-09T12:32:51;33.40;48.60
21302;DHT22;10810;48.270;9.996;2023-07-09T12:35:19;33.50;50.60
21302;DHT22;10810;48.270;9.996;2023-07-09T12:37:48;33.80;46.20
21302;DHT22;10810;48.270;9.996;2023-07-09T12:40:17;33.90;43.40
21302;DHT22;10810;48.270;9.996;2023-07-09T12:42:48;33.90;44.00
21302;DHT22;10810;48.270;9.996;2023-07-09T12:45:19;34.30;49.10
21302;DHT22;10810;48.270;9.996;2023-07-09T12:47:47;34.70;46.50
21302;DHT22;10810;48.270;9.996;2023-07-09T12:50:29;35.20;48.40
21302;DHT22;10810;48.270;9.996;2023-07-09T12:53:01;35.30;48.00
21302;DHT22;10810;48.270;9.996;2023-07-09T12:55:30;35.20;43.70
21302;DHT22;10810;48.270;9.996;2023-07-09T12:58:08;35.30;47.80
21302;DHT22;10810;48.270;9.996;2023-07-09T13:00:38;35.10;44.40
21302;DHT22;10810;48.270;9.996;2023-07-09T13:03:13;35.10;43.00
21302;DHT22;10810;48.270;9.996;2023-07-09T13:05:51;34.90;42.00
21302;DHT22;10810;48.270;9.996;2023-07-09T13:10:46;34.60;41.90
21302;DHT22;10810;48.270;9.996;2023-07-09T13:13:16;34.30;43.30
21302;DHT22;10810;48.270;9.996;2023-07-09T13:15:48;34.20;43.70
21302;DHT22;10810;48.270;9.996;2023-07-09T13:18:16;34.40;46.40
21302;DHT22;10810;48.270;9.996;2023-07-09T13:20:44;34.70;42.90
21302;DHT22;10810;48.270;9.996;2023-07-09T13:23:14;34.70;44.00
21302;DHT22;10810;48.270;9.996;2023-07-09T13:25:42;34.50;43.00
21302;DHT22;10810;48.270;9.996;2023-07-09T13:28:15;34.20;43.10
21302;DHT22;10810;48.270;9.996;2023-07-09T13:30:42;34.10;44.10
21302;DHT22;10810;48.270;9.996;2023-07-09T13:33:11;34.00;42.80
21302;DHT22;10810;48.270;9.996;2023-07-09T13:38:12;33.90;42.30
21302;DHT22;10810;48.270;9.996;2023-07-09T13:43:10;33.50;44.50
21302;DHT22;10810;48.270;9.996;2023-07-09T13:45:39;33.50;45.20
21302;DHT22;10810;48.270;9.996;2023-07-09T13:48:14;33.70;43.20
21302;DHT22;10810;48.270;9.996;2023-07-09T13:50:43;33.60;44.00
21302;DHT22;10810;48.270;9.996;2023-07-09T13:53:15;34.00;45.20
21302;DHT22;10810;48.270;9.996;2023-07-09T13:55:43;34.00;45.60
21302;DHT22;10810;48.270;9.996;2023-07-09T13:58:10;34.10;46.00
21302;DHT22;10810;48.270;9.996;2023-07-09T14:00:39;34.10;46.60
21302;DHT22;10810;48.270;9.996;2023-07-09T14:03:17;34.10;44.20
21302;DHT22;10810;48.270;9.996;2023-07-09T14:05:46;34.00;44.60
21302;DHT22;10810;48.270;9.996;2023-07-09T14:08:13;34.30;49.80
21302;DHT22;10810;48.270;9.996;2023-07-09T14:10:40;34.50;45.20
21302;DHT22;10810;48.270;9.996;2023-07-09T14:13:12;34.50;45.90
21302;DHT22;10810;48.270;9.996;2023-07-09T14:15:44;34.50;45.10
21302;DHT22;10810;48.270;9.996;2023-07-09T14:18:13;34.50;46.10
21302;DHT22;10810;48.270;9.996;2023-07-09T14:20:55;34.60;48.60
21302;DHT22;10810;48.270;9.996;2023-07-09T14:23:22;34.70;53.40
21302;DHT22;10810;48.270;9.996;2023-07-09T14:28:19;34.50;42.40
21302;DHT22;10810;48.270;9.996;2023-07-09T14:30:48;34.20;42.60
21302;DHT22;10810;48.270;9.996;2023-07-09T14:33:21;34.00;42.00
21302;DHT22;10810;48.270;9.996;2023-07-09T14:35:52;33.70;43.50
21302;DHT22;10810;48.270;9.996;2023-07-09T14:38:20;33.50;44.10
21302;DHT22;10810;48.270;9.996;2023-07-09T14:40:51;33.40;46.00
21302;DHT22;10810;48.270;9.996;2023-07-09T14:43:19;33.30;45.90
21302;DHT22;10810;48.270;9.996;2023-07-09T14:45:47;33.20;45.90
21302;DHT22;10810;48.270;9.996;2023-07-09T14:48:16;33.20;45.50
21302;DHT22;10810;48.270;9.996;2023-07-09T14:50:43;33.10;44.50
21302;DHT22;10810;48.270;9.996;2023-07-09T14:53:14;33.00;44.20
21302;DHT22;10810;48.270;9.996;2023-07-09T14:55:42;33.00;44.20
21302;DHT22;10810;48.270;9.996;2023-07-09T14:58:15;32.80;44.70
21302;DHT22;10810;48.270;9.996;2023-07-09T15:00:42;32.80;45.10
21302;DHT22;10810;48.270;9.996;2023-07-09T15:03:17;32.70;45.40
21302;DHT22;10810;48.270;9.996;2023-07-09T15:05:44;32.60;44.90
21302;DHT22;10810;48.270;9.996;2023-07-09T15:08:15;32.50;44.60
21302;DHT22;10810;48.270;9.996;2023-07-09T15:10:42;32.50;45.10
21302;DHT22;10810;48.270;9.996;2023-07-09T15:13:17;32.60;46.20
21302;DHT22;10810;48.270;9.996;2023-07-09T15:15:45;32.60;45.70
21302;DHT22;10810;48.270;9.996;2023-07-09T15:18:13;32.70;45.20
21302;DHT22;10810;48.270;9.996;2023-07-09T15:20:45;33.00;45.20
21302;DHT22;10810;48.270;9.996;2023-07-09T15:23:15;33.00;45.70
21302;DHT22;10810;48.270;9.996;2023-07-09T15:28:10;33.30;43.90
21302;DHT22;10810;48.270;9.996;2023-07-09T15:33:08;33.40;44.20
21302;DHT22;10810;48.270;9.996;2023-07-09T15:35:36;33.40;44.30
21302;DHT22;10810;48.270;9.996;2023-07-09T15:38:30;33.80;45.90
21302;DHT22;10810;48.270;9.996;2023-07-09T15:40:59;33.80;46.60
21302;DHT22;10810;48.270;9.996;2023-07-09T15:43:28;34.00;46.60
21302;DHT22;10810;48.270;9.996;2023-07-09T15:45:56;34.50;44.40
21302;DHT22;10810;48.270;9.996;2023-07-09T15:48:29;34.60;44.80
21302;DHT22;10810;48.270;9.996;2023-07-09T15:56:00;34.90;44.20
21302;DHT22;10810;48.270;9.996;2023-07-09T15:58:29;34.80;41.50
21302;DHT22;10810;48.270;9.996;2023-07-09T16:03:25;35.10;45.40
21302;DHT22;10810;48.270;9.996;2023-07-09T16:05:52;35.30;44.00
21302;DHT22;10810;48.270;9.996;2023-07-09T16:13:20;35.20;43.70
21302;DHT22;10810;48.270;9.996;2023-07-09T16:20:43;34.90;44.00
21302;DHT22;10810;48.270;9.996;2023-07-09T16:23:15;34.90;44.70
21302;DHT22;10810;48.270;9.996;2023-07-09T16:28:13;34.70;43.20
21302;DHT22;10810;48.270;9.996;2023-07-09T16:30:41;34.60;43.40
21302;DHT22;10810;48.270;9.996;2023-07-09T16:33:10;34.60;44.00
21302;DHT22;10810;48.270;9.996;2023-07-09T16:35:39;34.60;42.50
21302;DHT22;10810;48.270;9.996;2023-07-09T16:40:41;34.50;43.40
21302;DHT22;10810;48.270;9.996;2023-07-09T16:43:21;34.50;44.00
21302;DHT22;10810;48.270;9.996;2023-07-09T16:48:26;34.50;45.50
21302;DHT22;10810;48.270;9.996;2023-07-09T16:56:22;34.70;43.30
21302;DHT22;10810;48.270;9.996;2023-07-09T17:03:56;34.10;49.50
21302;DHT22;10810;48.270;9.996;2023-07-09T17:18:48;33.50;49.00
21302;DHT22;10810;48.270;9.996;2023-07-09T17:36:13;32.60;55.30
21302;DHT22;10810;48.270;9.996;2023-07-09T17:56:22;30.90;63.60
21302;DHT22;10810;48.270;9.996;2023-07-09T18:06:20;30.10;64.90
21302;DHT22;10810;48.270;9.996;2023-07-09T18:11:21;29.80;64.20
21302;DHT22;10810;48.270;9.996;2023-07-09T18:16:19;29.60;67.10
21302;DHT22;10810;48.270;9.996;2023-07-09T18:18:46;29.50;65.90
21302;DHT22;10810;48.270;9.996;2023-07-09T18:26:17;28.80;67.60
21302;DHT22;10810;48.270;9.996;2023-07-09T18:48:15;27.90;72.50
21302;DHT22;10810;48.270;9.996;2023-07-09T19:01:40;27.00;81.20
21302;DHT22;10810;48.270;9.996;2023-07-09T19:07:59;26.60;83.70
21302;DHT22;10810;48.270;9.996;2023-07-09T19:10:48;26.40;85.80
21302;DHT22;10810;48.270;9.996;2023-07-09T19:13:18;26.30;86.10
21302;DHT22;10810;48.270;9.996;2023-07-09T19:15:49;26.30;85.80
21302;DHT22;10810;48.270;9.996;2023-07-09T19:18:19;26.20;86.00
21302;DHT22;10810;48.270;9.996;2023-07-09T19:23:24;25.90;88.10
21302;DHT22;10810;48.270;9.996;2023-07-09T19:25:53;25.80;90.00
21302;DHT22;10810;48.270;9.996;2023-07-09T19:28:21;25.70;90.90
21302;DHT22;10810;48.270;9.996;2023-07-09T19:30:51;25.60;91.90
21302;DHT22;10810;48.270;9.996;2023-07-09T19:33:38;25.50;93.10
21302;DHT22;10810;48.270;9.996;2023-07-09T19:36:26;25.30;93.50
21302;DHT22;10810;48.270;9.996;2023-07-09T19:39:25;25.20;93.60
21302;DHT22;10810;48.270;9.996;2023-07-09T19:42:01;25.10;93.00
21302;DHT22;10810;48.270;9.996;2023-07-09T19:44:29;25.10;93.50
21302;DHT22;10810;48.270;9.996;2023-07-09T19:46:57;25.00;94.40
21302;DHT22;10810;48.270;9.996;2023-07-09T19:49:41;25.00;95.10
21302;DHT22;10810;48.270;9.996;2023-07-09T19:52:14;24.90;95.30
21302;DHT22;10810;48.270;9.996;2023-07-09T19:54:42;24.90;95.60
21302;DHT22;10810;48.270;9.996;2023-07-09T19:57:11;24.80;95.90
21302;DHT22;10810;48.270;9.996;2023-07-09T19:59:38;24.80;96.60
21302;DHT22;10810;48.270;9.996;2023-07-09T20:09:30;24.20;97.40
21302;DHT22;10810;48.270;9.996;2023-07-09T20:14:40;24.10;98.10
21302;DHT22;10810;48.270;9.996;2023-07-09T20:24:24;23.90;99.20
21302;DHT22;10810;48.270;9.996;2023-07-09T20:26:52;23.90;99.30
21302;DHT22;10810;48.270;9.996;2023-07-09T20:29:20;23.90;99.30
21302;DHT22;10810;48.270;9.996;2023-07-09T20:31:48;23.80;99.90
21302;DHT22;10810;48.270;9.996;2023-07-09T20:34:18;23.80;99.90
21302;DHT22;10810;48.270;9.996;2023-07-09T20:36:51;23.70;99.90
21302;DHT22;10810;48.270;9.996;2023-07-09T20:39:21;23.50;99.90
21302;DHT22;10810;48.270;9.996;2023-07-09T20:41:50;23.40;99.90
21302;DHT22;10810;48.270;9.996;2023-07-09T20:44:23;23.30;99.90
21302;DHT22;10810;48.270;9.996;2023-07-09T20:46:52;23.20;99.90
21302;DHT22;10810;48.270;9.996;2023-07-09T20:49:21;23.00;99.90
21302;DHT22;10810;48.270;9.996;2023-07-09T20:51:48;22.90;99.90
21302;DHT22;10810;48.270;9.996;2023-07-09T20:54:15;22.80;99.90
21302;DHT22;10810;48.270;9.996;2023-07-09T20:59:12;22.90;99.90
21302;DHT22;10810;48.270;9.996;2023-07-09T21:01:42;23.00;99.90
21302;DHT22;10810;48.270;9.996;2023-07-09T21:04:14;22.90;99.90
21302;DHT22;10810;48.270;9.996;2023-07-09T21:06:42;22.90;99.90
21302;DHT22;10810;48.270;9.996;2023-07-09T21:09:17;22.80;99.90
21302;DHT22;10810;48.270;9.996;2023-07-09T21:11:45;22.60;99.90
21302;DHT22;10810;48.270;9.996;2023-07-09T21:14:13;22.40;99.90
21302;DHT22;10810;48.270;9.996;2023-07-09T21:16:43;22.40;99.90
21302;DHT22;10810;48.270;9.996;2023-07-09T21:19:17;22.30;99.90
21302;DHT22;10810;48.270;9.996;2023-07-09T21:21:46;22.20;99.90
21302;DHT22;10810;48.270;9.996;2023-07-09T21:24:24;22.10;99.90
21302;DHT22;10810;48.270;9.996;2023-07-09T21:26:52;22.10;99.90
21302;DHT22;10810;48.270;9.996;2023-07-09T21:29:20;22.00;99.90
21302;DHT22;10810;48.270;9.996;2023-07-09T21:31:49;21.90;99.90
21302;DHT22;10810;48.270;9.996;2023-07-09T21:34:18;21.90;99.90
21302;DHT22;10810;48.270;9.996;2023-07-09T21:36:47;21.80;99.90
21302;DHT22;10810;48.270;9.996;2023-07-09T21:39:15;21.90;99.90
21302;DHT22;10810;48.270;9.996;2023-07-09T21:41:44;22.00;99.90
21302;DHT22;10810;48.270;9.996;2023-07-09T21:46:40;22.00;99.90
21302;DHT22;10810;48.270;9.996;2023-07-09T21:49:12;21.90;99.90
21302;DHT22;10810;48.270;9.996;2023-07-09T21:51:40;21.80;99.90
21302;DHT22;10810;48.270;9.996;2023-07-09T21:54:25;21.80;99.90
21302;DHT22;10810;48.270;9.996;2023-07-09T21:56:53;21.70;99.90
21302;DHT22;10810;48.270;9.996;2023-07-09T21:59:21;21.60;99.90
21302;DHT22;10810;48.270;9.996;2023-07-09T22:01:51;21.60;99.90
21302;DHT22;10810;48.270;9.996;2023-07-09T22:04:30;21.60;99.90
21302;DHT22;10810;48.270;9.996;2023-07-09T22:06:59;21.50;99.90
21302;DHT22;10810;48.270;9.996;2023-07-09T22:09:27;21.50;99.90
21302;DHT22;10810;48.270;9.996;2023-07-09T22:11:55;21.50;99.90
21302;DHT22;10810;48.270;9.996;2023-07-09T22:14:24;21.40;99.90
21302;DHT22;10810;48.270;9.996;2023-07-09T22:16:52;21.40;99.90
21302;DHT22;10810;48.270;9.996;2023-07-09T22:19:22;21.20;99.90
21302;DHT22;10810;48.270;9.996;2023-07-09T22:21:49;21.10;99.90
21302;DHT22;10810;48.270;9.996;2023-07-09T22:24:18;21.00;99.90